Time;durP1;ratioP1;P1;durP2;ratioP2;P2;SDS_P1;SDS_P2;PMS_P1;PMS_P2;Temp;Humidity;BMP_temperature;BMP_pressure;BME280_temperature;BME280_humidity;BME280_pressure;Samples;Min_cycle;Max_cycle;Signal;HPM_P1;HPM_P2
2022/04/27 00:00:21;;;;;;;12.15;9.18;;;;;;;;;;4982732;28;20041;-72
2022/04/27 00:02:47;;;;;;;12.75;9.73;;;;;;;;;;4982555;28;20446;-71
2022/04/27 00:05:13;;;;;;;14.88;9.95;;;;;;;;;;4982110;28;20038;-70
2022/04/27 00:07:39;;;;;;;12.57;9.73;;;;;;;;;;4982411;28;20042;-70
2022/04/27 00:10:05;;;;;;;11.30;9.23;;;;;;;;;;4982563;28;20414;-71
2022/04/27 00:12:33;;;;;;;12.85;9.10;;;;;;;;;;4982407;28;20142;-70
2022/04/27 00:14:59;;;;;;;12.50;8.38;;;;;;;;;;4982561;28;20558;-71
2022/04/27 00:17:24;;;;;;;10.00;7.78;;;;;;;;;;4982109;28;20027;-70
2022/04/27 00:19:50;;;;;;;10.63;7.68;;;;;;;;;;4982362;28;20566;-71
2022/04/27 00:22:15;;;;;;;9.90;8.65;;;;;;;;;;4982770;28;20132;-70
2022/04/27 00:24:41;;;;;;;14.60;8.77;;;;;;;;;;4981919;28;20034;-70
2022/04/27 00:27:06;;;;;;;10.52;8.20;;;;;;;;;;4981063;28;20434;-70
2022/04/27 00:29:32;;;;;;;12.60;8.73;;;;;;;;;;4981420;28;20041;-71
2022/04/27 00:31:58;;;;;;;11.23;8.80;;;;;;;;;;4982349;28;20034;-70
2022/04/27 00:34:23;;;;;;;10.85;8.13;;;;;;;;;;4981690;28;20041;-71
2022/04/27 00:36:49;;;;;;;10.27;8.68;;;;;;;;;;4964919;28;20038;-70
2022/04/27 00:39:16;;;;;;;10.73;8.00;;;;;;;;;;4980905;28;20030;-70
2022/04/27 00:41:58;;;;;;;11.02;8.52;;;;;;;;;;4982133;28;20558;-70
2022/04/27 00:44:32;;;;;;;10.40;7.90;;;;;;;;;;4963943;28;20479;-70
2022/04/27 00:46:58;;;;;;;8.88;7.55;;;;;;;;;;4963621;28;20042;-70
2022/04/27 00:49:24;;;;;;;8.13;7.13;;;;;;;;;;4981332;28;20117;-71
2022/04/27 00:51:50;;;;;;;9.07;7.45;;;;;;;;;;4964461;28;20049;-70
2022/04/27 00:54:18;;;;;;;13.00;8.40;;;;;;;;;;4963543;28;20342;-71
2022/04/27 00:56:44;;;;;;;10.05;8.27;;;;;;;;;;4964627;28;20053;-71
2022/04/27 00:59:10;;;;;;;10.05;7.43;;;;;;;;;;4982351;28;20042;-71
2022/04/27 01:01:35;;;;;;;10.93;8.27;;;;;;;;;;4963135;28;20550;-71
2022/04/27 01:04:04;;;;;;;9.23;7.22;;;;;;;;;;4980985;28;20507;-72
2022/04/27 01:06:30;;;;;;;7.38;6.68;;;;;;;;;;4963447;28;20117;-70
2022/04/27 01:08:56;;;;;;;9.77;6.65;;;;;;;;;;4981524;28;20380;-71
2022/04/27 01:11:22;;;;;;;9.52;7.53;;;;;;;;;;4962990;28;20126;-70
2022/04/27 01:13:53;;;;;;;11.07;8.30;;;;;;;;;;4963874;28;20157;-71
2022/04/27 01:16:21;;;;;;;9.05;7.68;;;;;;;;;;4963102;28;20561;-71
2022/04/27 01:18:46;;;;;;;9.27;7.50;;;;;;;;;;4963709;28;20038;-70
2022/04/27 01:21:12;;;;;;;9.00;7.75;;;;;;;;;;4962256;28;20034;-70
2022/04/27 01:24:00;;;;;;;11.82;8.90;;;;;;;;;;4980215;28;20108;-69
2022/04/27 01:26:26;;;;;;;13.63;8.35;;;;;;;;;;4963595;28;20034;-71
2022/04/27 01:28:51;;;;;;;11.13;8.88;;;;;;;;;;4981371;28;20085;-70
2022/04/27 01:31:17;;;;;;;7.85;7.00;;;;;;;;;;4980607;28;20046;-73
2022/04/27 01:33:42;;;;;;;13.40;8.00;;;;;;;;;;4962538;28;20077;-71
2022/04/27 01:36:10;;;;;;;10.98;7.60;;;;;;;;;;4980328;28;20046;-71
2022/04/27 01:38:40;;;;;;;10.32;8.15;;;;;;;;;;4980785;28;20046;-72
2022/04/27 01:41:06;;;;;;;10.98;7.75;;;;;;;;;;4963302;28;20034;-72
2022/04/27 01:43:33;;;;;;;9.85;6.60;;;;;;;;;;4963331;28;20034;-72
2022/04/27 01:45:59;;;;;;;10.73;7.15;;;;;;;;;;4953953;28;20062;-72
2022/04/27 01:48:26;;;;;;;9.02;6.40;;;;;;;;;;4979982;28;20113;-70
2022/04/27 01:50:52;;;;;;;8.98;6.57;;;;;;;;;;4963524;28;20045;-71
2022/04/27 01:56:03;;;;;;;10.30;7.13;;;;;;;;;;4962757;28;20125;-71
2022/04/27 01:58:34;;;;;;;;;;;;;;;;;;4963969;28;20378;-71
2022/04/27 02:01:00;;;;;;;10.77;6.38;;;;;;;;;;4963449;28;20540;-71
2022/04/27 02:03:27;;;;;;;9.43;6.57;;;;;;;;;;4963009;28;20022;-72
2022/04/27 02:05:53;;;;;;;10.05;6.50;;;;;;;;;;4980627;28;20069;-70
2022/04/27 02:08:21;;;;;;;7.40;5.97;;;;;;;;;;4962493;28;20041;-71
2022/04/27 02:10:46;;;;;;;9.30;6.88;;;;;;;;;;4980412;28;20034;-72
2022/04/27 02:13:12;;;;;;;10.18;6.85;;;;;;;;;;4962984;28;20448;-71
2022/04/27 02:15:38;;;;;;;9.88;6.60;;;;;;;;;;4962823;28;20038;-70
2022/04/27 02:18:24;;;;;;;8.25;6.05;;;;;;;;;;4978843;28;20124;-71
2022/04/27 02:20:49;;;;;;;8.68;6.35;;;;;;;;;;4980796;28;20447;-70
2022/04/27 02:23:19;;;;;;;9.25;5.97;;;;;;;;;;4962552;28;20038;-71
2022/04/27 02:25:46;;;;;;;18.02;6.55;;;;;;;;;;4963249;28;20034;-71
2022/04/27 02:28:12;;;;;;;11.35;5.53;;;;;;;;;;4962616;28;20038;-71
2022/04/27 02:30:37;;;;;;;5.82;5.22;;;;;;;;;;4959836;28;20506;-71
2022/04/27 02:33:04;;;;;;;9.05;5.25;;;;;;;;;;4961972;28;20236;-70
2022/04/27 02:35:30;;;;;;;5.63;5.13;;;;;;;;;;4980513;28;20165;-71
2022/04/27 02:37:56;;;;;;;6.95;5.57;;;;;;;;;;4963250;28;20034;-71
2022/04/27 02:40:22;;;;;;;8.18;6.15;;;;;;;;;;4945858;28;20061;-70
2022/04/27 02:42:49;;;;;;;8.93;6.25;;;;;;;;;;4962242;28;20034;-71
2022/04/27 02:45:14;;;;;;;8.85;6.20;;;;;;;;;;4963152;28;20042;-70
2022/04/27 02:47:40;;;;;;;9.07;6.28;;;;;;;;;;4962779;28;20034;-71
2022/04/27 02:52:58;;;;;;;7.32;5.35;;;;;;;;;;4966013;28;20923;-71
2022/04/27 02:55:27;;;;;;;7.63;5.43;;;;;;;;;;4966556;28;20038;-70
2022/04/27 02:57:53;;;;;;;7.88;5.57;;;;;;;;;;4984214;28;20332;-70
2022/04/27 03:00:19;;;;;;;6.88;5.70;;;;;;;;;;4966401;28;20216;-71
2022/04/27 03:02:45;;;;;;;7.00;5.57;;;;;;;;;;4965745;28;20486;-71
2022/04/27 03:05:11;;;;;;;9.27;6.35;;;;;;;;;;4983706;28;20392;-70
2022/04/27 03:07:37;;;;;;;8.02;5.78;;;;;;;;;;4966588;28;20081;-70
2022/04/27 03:10:03;;;;;;;8.10;5.78;;;;;;;;;;4966300;28;20475;-72
2022/04/27 03:12:30;;;;;;;7.00;5.75;;;;;;;;;;4965357;28;20097;-71
2022/04/27 03:14:57;;;;;;;9.57;6.03;;;;;;;;;;4965422;28;20038;-71
2022/04/27 03:17:23;;;;;;;8.70;6.40;;;;;;;;;;4966225;28;20030;-71
2022/04/27 03:19:48;;;;;;;6.70;6.00;;;;;;;;;;4966383;28;20045;-71
2022/04/27 03:22:14;;;;;;;8.52;6.13;;;;;;;;;;4983875;28;20181;-71
2022/04/27 03:24:39;;;;;;;10.13;6.28;;;;;;;;;;4964544;28;20041;-71
2022/04/27 03:27:15;;;;;;;7.80;6.18;;;;;;;;;;4966027;28;20439;-69
2022/04/27 03:29:42;;;;;;;9.57;6.60;;;;;;;;;;4966174;28;20034;-70
2022/04/27 03:32:10;;;;;;;8.25;6.45;;;;;;;;;;4965457;28;20033;-71
2022/04/27 03:34:37;;;;;;;7.75;6.05;;;;;;;;;;4964859;28;20058;-71
2022/04/27 03:37:03;;;;;;;8.52;6.43;;;;;;;;;;4965419;28;20069;-70
2022/04/27 03:39:29;;;;;;;8.65;6.78;;;;;;;;;;4981930;28;20076;-71
2022/04/27 03:41:57;;;;;;;10.45;7.22;;;;;;;;;;4965594;28;20046;-70
2022/04/27 03:44:23;;;;;;;9.25;6.43;;;;;;;;;;4965217;28;20034;-70
2022/04/27 03:46:48;;;;;;;8.82;6.60;;;;;;;;;;4978714;28;20073;-71
2022/04/27 03:49:14;;;;;;;10.00;7.25;;;;;;;;;;4965502;28;20077;-70
2022/04/27 03:51:39;;;;;;;10.57;7.10;;;;;;;;;;4966210;28;20057;-70
2022/04/27 03:54:05;;;;;;;12.23;7.38;;;;;;;;;;4964473;28;20034;-69
2022/04/27 03:56:31;;;;;;;10.18;7.05;;;;;;;;;;4965351;28;20450;-71
2022/04/27 03:58:59;;;;;;;10.07;7.25;;;;;;;;;;4965514;28;20038;-71
2022/04/27 04:01:25;;;;;;;11.73;7.38;;;;;;;;;;4961961;28;20034;-70
2022/04/27 04:03:51;;;;;;;9.77;7.43;;;;;;;;;;4964958;28;20114;-71
2022/04/27 04:06:17;;;;;;;9.35;7.53;;;;;;;;;;4965425;28;20153;-70
2022/04/27 04:08:45;;;;;;;9.88;7.55;;;;;;;;;;4964505;28;20822;-70
2022/04/27 04:11:12;;;;;;;11.50;8.13;;;;;;;;;;4964065;28;20038;-70
2022/04/27 04:14:00;;;;;;;8.55;7.05;;;;;;;;;;4971355;28;20050;-71
2022/04/27 04:16:49;;;;;;;10.70;7.10;;;;;;;;;;4971627;28;20070;-71
2022/04/27 04:19:32;;;;;;;7.95;6.25;;;;;;;;;;4981805;28;20376;-71
2022/04/27 04:22:08;;;;;;;11.93;6.90;;;;;;;;;;4982167;28;20419;-71
2022/04/27 04:30:26;;;;;;;9.77;7.32;;;;;;;;;;4963973;28;20034;-68
2022/04/27 04:33:11;;;;;;;10.75;7.55;;;;;;;;;;4979412;28;20514;-69
2022/04/27 04:35:44;;;;;;;10.05;6.97;;;;;;;;;;4982338;28;20056;-68
2022/04/27 04:38:11;;;;;;;14.20;8.02;;;;;;;;;;4964656;28;20034;-68
2022/04/27 04:40:37;;;;;;;11.85;8.35;;;;;;;;;;4964120;28;20100;-69
2022/04/27 04:43:04;;;;;;;15.43;8.98;;;;;;;;;;4963765;28;20041;-68
2022/04/27 04:45:30;;;;;;;12.55;9.13;;;;;;;;;;4964258;28;20038;-68
2022/04/27 04:48:04;;;;;;;14.75;8.68;;;;;;;;;;4946185;28;20513;-68
2022/04/27 04:50:48;;;;;;;13.65;9.07;;;;;;;;;;4979979;28;20108;-69
2022/04/27 04:53:36;;;;;;;17.75;9.63;;;;;;;;;;4979144;28;20054;-69
2022/04/27 04:56:17;;;;;;;13.75;9.68;;;;;;;;;;4980390;28;20034;-69
2022/04/27 04:59:02;;;;;;;14.00;8.68;;;;;;;;;;4962861;28;20573;-69
2022/04/27 05:01:43;;;;;;;13.13;8.48;;;;;;;;;;4980760;28;20046;-69
2022/04/27 05:04:36;;;;;;;14.50;9.38;;;;;;;;;;4964279;28;20031;-69
2022/04/27 05:07:18;;;;;;;14.52;9.55;;;;;;;;;;4964351;28;20085;-69
2022/04/27 05:10:08;;;;;;;18.80;10.43;;;;;;;;;;4963839;28;20066;-70
2022/04/27 05:12:46;;;;;;;15.95;10.65;;;;;;;;;;4981940;28;20034;-69
2022/04/27 05:15:21;;;;;;;15.63;9.40;;;;;;;;;;4980553;28;20046;-69
2022/04/27 05:17:55;;;;;;;14.55;9.38;;;;;;;;;;4982315;28;21035;-69
2022/04/27 05:20:38;;;;;;;14.52;9.35;;;;;;;;;;4982444;28;20038;-69
2022/04/27 05:23:22;;;;;;;13.35;9.23;;;;;;;;;;4982327;28;21042;-70
2022/04/27 05:26:08;;;;;;;13.57;8.85;;;;;;;;;;4981485;28;20140;-69
2022/04/27 05:31:55;;;;;;;11.85;8.52;;;;;;;;;;4978754;28;20360;-70
2022/04/27 05:34:33;;;;;;;12.35;8.43;;;;;;;;;;4964430;28;20507;-69
2022/04/27 05:37:05;;;;;;;10.77;8.05;;;;;;;;;;4964204;28;20122;-69
2022/04/27 05:39:56;;;;;;;10.68;8.18;;;;;;;;;;4982505;28;20030;-69
2022/04/27 05:42:48;;;;;;;11.40;8.93;;;;;;;;;;4964334;28;20943;-69
2022/04/27 05:45:32;;;;;;;13.82;8.60;;;;;;;;;;4982208;28;20053;-69
2022/04/27 05:48:15;;;;;;;13.18;8.60;;;;;;;;;;4963655;28;20064;-69
2022/04/27 05:51:03;;;;;;;12.05;9.18;;;;;;;;;;4964579;28;20030;-70
2022/04/27 05:53:46;;;;;;;15.88;9.45;;;;;;;;;;4980124;28;20093;-69
2022/04/27 05:56:30;;;;;;;15.18;10.13;;;;;;;;;;4982010;28;20415;-70
2022/04/27 05:59:31;;;;;;;12.90;8.75;;;;;;;;;;4895570;29;20191;-69
2022/04/27 06:02:15;;;;;;;13.30;9.48;;;;;;;;;;4974610;28;20057;-69
2022/04/27 06:04:41;;;;;;;13.82;9.27;;;;;;;;;;4963731;28;20035;-69
2022/04/27 06:07:08;;;;;;;12.82;9.18;;;;;;;;;;4981959;28;20065;-69
2022/04/27 06:09:33;;;;;;;22.33;11.68;;;;;;;;;;4963443;28;20037;-70
2022/04/27 06:12:07;;;;;;;15.88;10.23;;;;;;;;;;4964098;28;20562;-69
2022/04/27 06:14:42;;;;;;;14.68;10.05;;;;;;;;;;4981362;28;20456;-69
2022/04/27 06:17:18;;;;;;;16.30;10.02;;;;;;;;;;4964402;28;20038;-69
2022/04/27 06:19:44;;;;;;;18.35;10.23;;;;;;;;;;4963780;28;20034;-69
2022/04/27 06:22:12;;;;;;;15.60;11.27;;;;;;;;;;4963867;28;20121;-70
2022/04/27 06:24:39;;;;;;;15.18;10.52;;;;;;;;;;4980430;28;20049;-70
2022/04/27 06:27:24;;;;;;;14.98;10.25;;;;;;;;;;4984630;28;20046;-70
2022/04/27 06:29:50;;;;;;;16.35;11.02;;;;;;;;;;4968224;28;20824;-70
2022/04/27 06:32:16;;;;;;;15.43;9.93;;;;;;;;;;4967271;28;20129;-69
2022/04/27 06:34:42;;;;;;;18.85;11.20;;;;;;;;;;4967583;28;20097;-70
2022/04/27 06:37:07;;;;;;;17.45;12.00;;;;;;;;;;4967992;28;20042;-70
2022/04/27 06:39:38;;;;;;;16.42;10.30;;;;;;;;;;4968317;28;20113;-70
2022/04/27 06:42:06;;;;;;;17.45;10.45;;;;;;;;;;4984800;28;20121;-69
2022/04/27 06:44:35;;;;;;;17.15;11.30;;;;;;;;;;4984487;28;20121;-69
2022/04/27 06:47:19;;;;;;;14.68;9.73;;;;;;;;;;4985291;28;20135;-70
2022/04/27 06:50:03;;;;;;;12.80;9.38;;;;;;;;;;4985707;28;20057;-70
2022/04/27 06:52:48;;;;;;;12.75;9.05;;;;;;;;;;4984673;28;20053;-70
2022/04/27 06:55:33;;;;;;;13.82;9.20;;;;;;;;;;4985079;28;20081;-70
2022/04/27 06:58:14;;;;;;;12.88;9.25;;;;;;;;;;4985533;28;20054;-69
2022/04/27 07:00:41;;;;;;;12.73;9.30;;;;;;;;;;4967735;28;20065;-69
2022/04/27 07:03:08;;;;;;;16.85;9.73;;;;;;;;;;4966923;28;20044;-69
2022/04/27 07:05:33;;;;;;;15.00;10.02;;;;;;;;;;4984735;28;20026;-69
2022/04/27 07:07:59;;;;;;;16.00;11.02;;;;;;;;;;4967287;28;20045;-69
2022/04/27 07:10:25;;;;;;;16.00;10.82;;;;;;;;;;4985313;28;20121;-70
2022/04/27 07:12:50;;;;;;;16.95;10.70;;;;;;;;;;4984878;28;20650;-69
2022/04/27 07:15:16;;;;;;;12.18;9.40;;;;;;;;;;4983276;28;20049;-69
2022/04/27 07:17:42;;;;;;;14.55;10.32;;;;;;;;;;4985039;28;20069;-69
2022/04/27 07:20:08;;;;;;;10.85;7.75;;;;;;;;;;4985047;28;20046;-69
2022/04/27 07:22:34;;;;;;;15.32;8.75;;;;;;;;;;4984788;28;20034;-69
2022/04/27 07:25:00;;;;;;;12.32;9.10;;;;;;;;;;4984138;28;20034;-69
2022/04/27 07:27:27;;;;;;;12.63;9.07;;;;;;;;;;4983664;28;20077;-69
2022/04/27 07:29:53;;;;;;;10.10;7.53;;;;;;;;;;4985087;28;20475;-69
2022/04/27 07:32:18;;;;;;;11.57;7.55;;;;;;;;;;4984376;28;20491;-69
2022/04/27 07:34:43;;;;;;;10.20;7.78;;;;;;;;;;4984270;28;20065;-69
2022/04/27 07:37:10;;;;;;;12.50;9.15;;;;;;;;;;4983376;28;20109;-69
2022/04/27 07:39:35;;;;;;;10.27;7.95;;;;;;;;;;4984850;28;20082;-69
2022/04/27 07:42:01;;;;;;;12.70;8.50;;;;;;;;;;4984383;28;20034;-70
2022/04/27 07:44:26;;;;;;;10.77;8.63;;;;;;;;;;4984045;28;20797;-69
2022/04/27 07:46:52;;;;;;;10.13;7.78;;;;;;;;;;4983881;28;20041;-69
2022/04/27 07:49:19;;;;;;;10.73;8.00;;;;;;;;;;4983572;28;20498;-69
2022/04/27 07:51:48;;;;;;;9.30;7.40;;;;;;;;;;4984065;28;20501;-69
2022/04/27 07:54:14;;;;;;;10.13;7.60;;;;;;;;;;4983683;28;20080;-69
2022/04/27 07:56:40;;;;;;;8.63;7.13;;;;;;;;;;4984515;28;20153;-70
2022/04/27 07:59:05;;;;;;;12.45;7.50;;;;;;;;;;4982886;28;20046;-69
2022/04/27 08:01:31;;;;;;;8.85;6.18;;;;;;;;;;4984127;28;20037;-69
2022/04/27 08:03:57;;;;;;;10.00;7.70;;;;;;;;;;4983688;28;20022;-69
2022/04/27 08:06:22;;;;;;;13.23;8.23;;;;;;;;;;4983836;28;20775;-69
2022/04/27 08:08:48;;;;;;;9.90;7.50;;;;;;;;;;4983927;28;20038;-69
2022/04/27 08:11:15;;;;;;;9.82;7.97;;;;;;;;;;4982682;28;20042;-69
2022/04/27 08:13:44;;;;;;;7.43;6.30;;;;;;;;;;4983121;28;20547;-69
2022/04/27 08:16:11;;;;;;;7.85;6.10;;;;;;;;;;4966161;28;20504;-70
2022/04/27 08:18:37;;;;;;;6.68;5.97;;;;;;;;;;4983580;28;20380;-70
2022/04/27 08:21:15;;;;;;;6.68;5.15;;;;;;;;;;4982814;28;20057;-70
2022/04/27 08:23:43;;;;;;;7.43;6.28;;;;;;;;;;4983155;28;20549;-70
2022/04/27 08:26:10;;;;;;;10.43;6.07;;;;;;;;;;4983757;28;20042;-69
2022/04/27 08:28:39;;;;;;;8.10;6.80;;;;;;;;;;4983675;28;20046;-69
2022/04/27 08:31:07;;;;;;;9.82;6.82;;;;;;;;;;4980052;28;20466;-69
2022/04/27 08:33:33;;;;;;;8.45;6.50;;;;;;;;;;4982958;28;20041;-69
2022/04/27 08:35:59;;;;;;;7.88;6.10;;;;;;;;;;4983786;28;20037;-70
2022/04/27 08:38:25;;;;;;;8.57;6.10;;;;;;;;;;4983491;28;20518;-70
2022/04/27 08:40:51;;;;;;;5.97;5.05;;;;;;;;;;4981545;28;20788;-70
2022/04/27 08:43:16;;;;;;;5.53;4.70;;;;;;;;;;4982259;28;20030;-70
2022/04/27 08:45:44;;;;;;;7.18;5.78;;;;;;;;;;4983056;28;20483;-70
2022/04/27 08:48:16;;;;;;;7.25;5.78;;;;;;;;;;4982734;28;20034;-70
2022/04/27 08:50:41;;;;;;;6.15;5.03;;;;;;;;;;4983519;28;20475;-70
2022/04/27 08:53:07;;;;;;;7.10;5.47;;;;;;;;;;4982195;28;20097;-69
2022/04/27 08:55:35;;;;;;;7.30;5.47;;;;;;;;;;4982437;28;20495;-69
2022/04/27 08:58:07;;;;;;;5.63;4.70;;;;;;;;;;4983139;28;20053;-70
2022/04/27 09:00:33;;;;;;;4.72;4.32;;;;;;;;;;4982763;28;20431;-69
2022/04/27 09:03:21;;;;;;;4.97;4.40;;;;;;;;;;4983010;28;20038;-69
2022/04/27 09:05:52;;;;;;;4.57;4.18;;;;;;;;;;4972265;28;20062;-69
2022/04/27 09:08:18;;;;;;;5.25;4.45;;;;;;;;;;4982835;28;20038;-70
2022/04/27 09:10:43;;;;;;;9.48;4.93;;;;;;;;;;4982955;28;20052;-70
2022/04/27 09:13:09;;;;;;;5.38;4.72;;;;;;;;;;4982604;28;20046;-70
2022/04/27 09:15:34;;;;;;;6.93;5.07;;;;;;;;;;4981214;28;20138;-70
2022/04/27 09:20:56;;;;;;;5.75;4.00;;;;;;;;;;4982536;28;20040;-70
2022/04/27 09:23:28;;;;;;;4.20;3.80;;;;;;;;;;4982588;28;20116;-70
2022/04/27 09:26:00;;;;;;;4.03;3.63;;;;;;;;;;4982757;28;20030;-70
2022/04/27 09:28:31;;;;;;;4.30;3.90;;;;;;;;;;4981405;28;20081;-69
2022/04/27 09:30:58;;;;;;;5.07;4.40;;;;;;;;;;4982280;28;20046;-69
2022/04/27 09:33:32;;;;;;;4.30;3.90;;;;;;;;;;4982475;28;20033;-69
2022/04/27 09:35:58;;;;;;;4.30;3.90;;;;;;;;;;4982165;28;20042;-70
2022/04/27 09:38:24;;;;;;;3.70;3.40;;;;;;;;;;4981259;28;20145;-70
2022/04/27 09:40:54;;;;;;;6.95;3.33;;;;;;;;;;4982296;28;20064;-70
2022/04/27 09:43:49;;;;;;;3.22;2.92;;;;;;;;;;4980088;28;20022;-70
2022/04/27 09:46:28;;;;;;;3.15;2.65;;;;;;;;;;4979042;28;20096;-70
2022/04/27 09:49:02;;;;;;;4.47;3.20;;;;;;;;;;4980466;28;20049;-70
2022/04/27 09:51:28;;;;;;;5.00;3.25;;;;;;;;;;4979322;28;20092;-70
2022/04/27 09:53:57;;;;;;;4.50;3.10;;;;;;;;;;4979586;28;20046;-70
2022/04/27 09:56:24;;;;;;;3.67;3.38;;;;;;;;;;4981983;28;20043;-69
2022/04/27 09:58:52;;;;;;;5.47;3.55;;;;;;;;;;4982190;28;20108;-70
2022/04/27 10:01:18;;;;;;;3.60;3.25;;;;;;;;;;4981803;28;20029;-69
2022/04/27 10:03:48;;;;;;;5.25;3.58;;;;;;;;;;4981625;28;20093;-70
2022/04/27 10:06:15;;;;;;;4.60;4.10;;;;;;;;;;4980921;28;20034;-70
2022/04/27 10:08:41;;;;;;;4.35;3.80;;;;;;;;;;4981963;28;20030;-70
2022/04/27 10:11:09;;;;;;;4.25;3.85;;;;;;;;;;4982093;28;20048;-70
2022/04/27 10:13:35;;;;;;;5.18;4.00;;;;;;;;;;4981026;28;20060;-70
2022/04/27 10:16:01;;;;;;;4.43;3.90;;;;;;;;;;4980811;28;20038;-70
2022/04/27 10:18:27;;;;;;;9.25;4.47;;;;;;;;;;4981555;28;20034;-70
2022/04/27 10:20:52;;;;;;;5.68;4.20;;;;;;;;;;4981989;28;20089;-69
2022/04/27 10:23:22;;;;;;;5.82;4.97;;;;;;;;;;4981607;28;20041;-70
2022/04/27 10:26:07;;;;;;;5.65;4.45;;;;;;;;;;4980938;28;20085;-70
2022/04/27 10:28:36;;;;;;;5.22;4.18;;;;;;;;;;4981765;28;20057;-70
2022/04/27 10:31:03;;;;;;;5.45;4.20;;;;;;;;;;4981764;28;20034;-70
2022/04/27 10:33:47;;;;;;;4.85;4.35;;;;;;;;;;4981551;28;20030;-70
2022/04/27 10:36:43;;;;;;;6.45;5.20;;;;;;;;;;4981697;28;20538;-70
2022/04/27 10:39:11;;;;;;;6.97;5.40;;;;;;;;;;4967148;28;20086;-70
2022/04/27 10:41:40;;;;;;;10.43;5.63;;;;;;;;;;4981218;28;20034;-70
2022/04/27 10:44:05;;;;;;;6.95;5.32;;;;;;;;;;4980333;28;20390;-70
2022/04/27 10:46:43;;;;;;;9.02;5.93;;;;;;;;;;4981791;28;20038;-70
2022/04/27 10:49:24;;;;;;;8.27;6.00;;;;;;;;;;4978913;28;20058;-70
2022/04/27 10:52:07;;;;;;;7.88;6.35;;;;;;;;;;4980209;28;21089;-70
2022/04/27 10:54:34;;;;;;;6.55;5.75;;;;;;;;;;4980880;28;20038;-70
2022/04/27 10:57:15;;;;;;;7.57;5.90;;;;;;;;;;4981167;28;20034;-70
2022/04/27 10:59:47;;;;;;;7.07;5.82;;;;;;;;;;4980517;28;20401;-70
2022/04/27 11:02:35;;;;;;;8.73;7.00;;;;;;;;;;4980909;28;20043;-70
2022/04/27 11:05:02;;;;;;;7.82;6.80;;;;;;;;;;4980868;28;20117;-69
2022/04/27 11:07:40;;;;;;;9.15;6.55;;;;;;;;;;4980675;28;20038;-70
2022/04/27 11:10:20;;;;;;;8.38;6.35;;;;;;;;;;4981379;28;20109;-69
2022/04/27 11:12:53;;;;;;;8.48;6.53;;;;;;;;;;4984972;28;20077;-69
2022/04/27 11:15:27;;;;;;;7.85;6.03;;;;;;;;;;4984004;28;20072;-69
2022/04/27 11:18:03;;;;;;;11.25;6.57;;;;;;;;;;4967238;28;20105;-69
2022/04/27 11:20:34;;;;;;;10.27;6.90;;;;;;;;;;4984728;28;20054;-69
2022/04/27 11:23:03;;;;;;;9.17;5.83;;;;;;;;;;4983735;28;20081;-69
2022/04/27 11:25:32;;;;;;;6.28;5.50;;;;;;;;;;4966153;28;20351;-69
2022/04/27 11:27:59;;;;;;;6.68;5.22;;;;;;;;;;4984782;28;20117;-70
2022/04/27 11:30:26;;;;;;;5.72;4.78;;;;;;;;;;4984505;28;20034;-70
2022/04/27 11:32:52;;;;;;;5.88;4.90;;;;;;;;;;4983318;28;20144;-70
2022/04/27 11:35:21;;;;;;;7.25;5.15;;;;;;;;;;4983891;28;21026;-69
2022/04/27 11:37:47;;;;;;;5.88;4.68;;;;;;;;;;4984481;28;20491;-69
2022/04/27 11:40:13;;;;;;;7.18;4.40;;;;;;;;;;4984477;28;20053;-69
2022/04/27 11:42:46;;;;;;;5.35;4.85;;;;;;;;;;4984530;28;20038;-70
2022/04/27 11:45:13;;;;;;;8.90;4.60;;;;;;;;;;4982779;28;20046;-70
2022/04/27 11:47:39;;;;;;;6.38;4.75;;;;;;;;;;4984437;28;20034;-69
2022/04/27 11:50:06;;;;;;;4.65;4.03;;;;;;;;;;4984792;28;20159;-69
2022/04/27 11:52:31;;;;;;;6.13;4.38;;;;;;;;;;4984311;28;20034;-69
2022/04/27 11:55:14;;;;;;;7.63;3.75;;;;;;;;;;4982965;28;20383;-70
2022/04/27 11:57:40;;;;;;;4.28;3.67;;;;;;;;;;4983951;28;20833;-70
2022/04/27 12:00:07;;;;;;;5.70;4.90;;;;;;;;;;4984167;28;20391;-70
2022/04/27 12:02:42;;;;;;;5.82;4.85;;;;;;;;;;4984288;28;20038;-70
2022/04/27 12:05:08;;;;;;;5.45;4.95;;;;;;;;;;4982875;28;20038;-70
2022/04/27 12:07:35;;;;;;;6.45;5.43;;;;;;;;;;4983638;28;20092;-70
2022/04/27 12:10:06;;;;;;;6.78;5.35;;;;;;;;;;4984147;28;20041;-70
2022/04/27 12:12:32;;;;;;;6.47;5.32;;;;;;;;;;4983825;28;20023;-70
2022/04/27 12:15:08;;;;;;;6.10;4.97;;;;;;;;;;4983594;28;20030;-69
2022/04/27 12:17:56;;;;;;;9.70;5.80;;;;;;;;;;4982727;28;20030;-70
2022/04/27 12:20:33;;;;;;;6.45;5.47;;;;;;;;;;4983423;28;20038;-70
2022/04/27 12:23:05;;;;;;;8.15;6.60;;;;;;;;;;4982684;28;20038;-69
2022/04/27 12:26:01;;;;;;;11.75;5.25;;;;;;;;;;4982529;28;20037;-69
2022/04/27 12:28:34;;;;;;;5.55;4.97;;;;;;;;;;4975503;28;20506;-69
2022/04/27 12:31:03;;;;;;;7.10;5.13;;;;;;;;;;4983147;28;21099;-70
2022/04/27 12:33:37;;;;;;;5.75;5.18;;;;;;;;;;4983478;28;20030;-70
2022/04/27 12:38:56;;;;;;;6.68;5.45;;;;;;;;;;4982659;28;20395;-69
2022/04/27 12:41:40;;;;;;;6.57;4.68;;;;;;;;;;4983122;28;20065;-69
2022/04/27 12:44:11;;;;;;;5.28;4.72;;;;;;;;;;4982826;28;20077;-69
2022/04/27 12:46:38;;;;;;;5.37;4.00;;;;;;;;;;4983558;28;20057;-70
2022/04/27 12:49:06;;;;;;;4.43;3.97;;;;;;;;;;4983259;28;20034;-70
2022/04/27 12:51:35;;;;;;;4.47;3.92;;;;;;;;;;4982333;28;20392;-70
2022/04/27 12:54:04;;;;;;;2.55;2.08;;;;;;;;;;4982410;28;20142;-72
2022/04/27 12:56:32;;;;;;;4.07;3.67;;;;;;;;;;4983255;28;20068;-71
2022/04/27 12:59:08;;;;;;;6.80;3.30;;;;;;;;;;4983525;28;20546;-71
2022/04/27 13:01:34;;;;;;;3.97;3.58;;;;;;;;;;4981897;28;20626;-71
2022/04/27 13:04:01;;;;;;;4.68;3.35;;;;;;;;;;4982552;28;20472;-70
2022/04/27 13:06:29;;;;;;;4.70;4.05;;;;;;;;;;4982728;28;20042;-71
2022/04/27 13:08:56;;;;;;;5.25;3.88;;;;;;;;;;4982634;28;20061;-71
2022/04/27 13:14:05;;;;;;;4.60;4.20;;;;;;;;;;4981750;28;20491;-72
2022/04/27 13:16:31;;;;;;;4.20;3.50;;;;;;;;;;4982416;28;20081;-70
2022/04/27 13:18:57;;;;;;;3.30;2.80;;;;;;;;;;4982281;28;20487;-70
2022/04/27 13:21:22;;;;;;;3.70;3.10;;;;;;;;;;4982780;28;20045;-70
2022/04/27 13:23:48;;;;;;;4.28;3.28;;;;;;;;;;4981464;28;20069;-71
2022/04/27 13:26:13;;;;;;;3.08;2.78;;;;;;;;;;4982580;28;20045;-70
2022/04/27 13:28:40;;;;;;;4.03;2.78;;;;;;;;;;4982519;28;20065;-71
2022/04/27 13:31:09;;;;;;;3.22;2.92;;;;;;;;;;4982115;28;20407;-70
2022/04/27 13:33:34;;;;;;;3.17;2.88;;;;;;;;;;4981186;28;20077;-70
2022/04/27 13:36:00;;;;;;;2.88;2.67;;;;;;;;;;4981775;28;20038;-70
2022/04/27 13:38:29;;;;;;;3.00;2.55;;;;;;;;;;4982019;28;20491;-70
2022/04/27 13:40:55;;;;;;;2.92;2.63;;;;;;;;;;4982207;28;20149;-70
2022/04/27 13:43:20;;;;;;;2.55;2.35;;;;;;;;;;4982366;28;20138;-70
2022/04/27 13:45:46;;;;;;;3.10;2.65;;;;;;;;;;4980545;28;20145;-70
2022/04/27 13:48:12;;;;;;;2.72;2.53;;;;;;;;;;4982193;28;20053;-70
2022/04/27 13:50:39;;;;;;;2.70;2.50;;;;;;;;;;4982318;28;20049;-71
2022/04/27 13:53:05;;;;;;;2.90;2.70;;;;;;;;;;4982280;28;20494;-70
2022/04/27 13:55:32;;;;;;;3.08;2.78;;;;;;;;;;4980503;28;20157;-70
2022/04/27 13:57:57;;;;;;;3.10;2.80;;;;;;;;;;4982049;28;20042;-70
2022/04/27 14:00:23;;;;;;;4.03;3.17;;;;;;;;;;4981796;28;20046;-70
2022/04/27 14:02:49;;;;;;;3.58;2.70;;;;;;;;;;4981858;28;20453;-70
2022/04/27 14:05:14;;;;;;;3.03;2.72;;;;;;;;;;4981374;28;20049;-70
2022/04/27 14:07:42;;;;;;;3.40;3.10;;;;;;;;;;4980575;28;20031;-70
2022/04/27 14:10:08;;;;;;;3.47;3.13;;;;;;;;;;4981985;28;20092;-70
2022/04/27 14:15:20;;;;;;;3.90;2.85;;;;;;;;;;4981393;28;20126;-72
2022/04/27 14:20:31;;;;;;;3.28;2.97;;;;;;;;;;4981878;28;20117;-72
2022/04/27 14:22:56;;;;;;;2.85;2.63;;;;;;;;;;4982126;28;20082;-72
2022/04/27 14:25:22;;;;;;;3.55;2.85;;;;;;;;;;4981279;28;20124;-72
2022/04/27 14:27:49;;;;;;;2.67;2.47;;;;;;;;;;4982293;28;20172;-72
2022/04/27 14:30:15;;;;;;;3.30;2.90;;;;;;;;;;4980256;28;20038;-71
2022/04/27 14:32:40;;;;;;;3.05;2.75;;;;;;;;;;4981452;28;20030;-70
2022/04/27 14:35:06;;;;;;;3.03;2.78;;;;;;;;;;4981550;28;20851;-69
2022/04/27 14:37:32;;;;;;;3.95;3.55;;;;;;;;;;4981592;28;20419;-70
2022/04/27 14:39:57;;;;;;;3.50;3.20;;;;;;;;;;4980892;28;21005;-70
2022/04/27 14:42:22;;;;;;;2.92;2.63;;;;;;;;;;4981053;28;20037;-70
2022/04/27 14:44:48;;;;;;;3.22;2.80;;;;;;;;;;4981515;28;20046;-70
2022/04/27 14:47:13;;;;;;;2.90;2.70;;;;;;;;;;4984417;28;20077;-70
2022/04/27 14:49:40;;;;;;;3.97;2.92;;;;;;;;;;4985579;28;20042;-70
2022/04/27 14:52:07;;;;;;;3.20;2.90;;;;;;;;;;4984477;28;20045;-70
2022/04/27 14:54:32;;;;;;;2.78;2.58;;;;;;;;;;4984507;28;20038;-70
2022/04/27 14:56:58;;;;;;;5.30;3.25;;;;;;;;;;4985357;28;20045;-70
2022/04/27 14:59:23;;;;;;;3.55;3.25;;;;;;;;;;4985328;28;20050;-70
2022/04/27 15:01:49;;;;;;;3.17;2.88;;;;;;;;;;4984308;28;20039;-70
2022/04/27 15:04:14;;;;;;;3.42;3.13;;;;;;;;;;4984004;28;20388;-70
2022/04/27 15:06:40;;;;;;;3.75;3.35;;;;;;;;;;4984947;28;20096;-70
2022/04/27 15:09:05;;;;;;;6.65;3.85;;;;;;;;;;4985033;28;20074;-70
2022/04/27 15:11:31;;;;;;;4.40;4.00;;;;;;;;;;4985063;28;20088;-69
2022/04/27 15:13:56;;;;;;;8.95;5.05;;;;;;;;;;4983571;28;20687;-70
2022/04/27 15:16:22;;;;;;;7.55;5.13;;;;;;;;;;4984206;28;20049;-70
2022/04/27 15:18:48;;;;;;;4.82;4.38;;;;;;;;;;4984780;28;20057;-70
2022/04/27 15:23:57;;;;;;;4.80;4.40;;;;;;;;;;4984239;28;20391;-70